createdAt,value
2023-03-19T00:01:07.716Z,4.98
2023-03-19T00:03:01.411Z,4.97
2023-03-19T00:04:25.596Z,4.95
2023-03-19T00:05:50.058Z,4.94
2023-03-19T00:07:25.529Z,4.93
2023-03-19T00:08:57.673Z,4.92
2023-03-19T00:10:19.311Z,4.90
2023-03-19T00:11:43.627Z,4.89
2023-03-19T00:13:24.520Z,4.87
2023-03-19T00:14:53.267Z,4.85
2023-03-19T00:16:27.192Z,4.84
2023-03-19T00:18:07.467Z,4.83
2023-03-19T00:19:46.736Z,4.82
2023-03-19T00:21:08.080Z,4.80
2023-03-19T00:22:41.918Z,4.78
2023-03-19T00:24:30.622Z,4.76
2023-03-19T00:25:55.000Z,4.74
2023-03-19T00:27:35.773Z,4.72
2023-03-19T00:29:18.810Z,4.71
2023-03-19T00:30:54.261Z,4.69
2023-03-19T00:32:48.869Z,4.67
2023-03-19T00:34:22.302Z,4.65
2023-03-19T00:35:44.078Z,4.64
2023-03-19T00:37:17.235Z,4.62
2023-03-19T00:38:58.253Z,4.60
2023-03-19T00:40:34.565Z,4.57
2023-03-19T00:42:19.372Z,4.55
2023-03-19T00:44:12.831Z,4.54
2023-03-19T00:45:58.171Z,4.52
2023-03-19T00:47:34.283Z,4.49
2023-03-19T00:49:07.755Z,4.47
2023-03-19T00:50:50.801Z,4.45
2023-03-19T00:52:22.386Z,4.44
2023-03-19T00:53:48.812Z,4.41
2023-03-19T00:55:29.160Z,4.39
2023-03-19T00:57:02.617Z,4.37
2023-03-19T00:58:38.632Z,4.36
2023-03-19T01:00:05.046Z,4.33
2023-03-19T01:01:38.745Z,4.32
2023-03-19T01:03:11.752Z,4.30
2023-03-19T01:04:59.930Z,4.27
2023-03-19T01:06:36.676Z,4.26
2023-03-19T01:08:17.395Z,4.24
2023-03-19T01:10:11.797Z,4.23
2023-03-19T01:12:05.605Z,4.20
2023-03-19T01:13:39.729Z,4.17
2023-03-19T01:15:24.354Z,4.14
2023-03-19T01:17:05.041Z,4.11
2023-03-19T01:18:40.258Z,4.08
2023-03-19T01:20:25.767Z,4.05
2023-03-19T01:22:06.349Z,4.02
2023-03-19T01:23:41.325Z,4.00
2023-03-19T01:25:26.115Z,4.00
2023-03-19T01:27:19.924Z,3.98
2023-03-19T01:29:00.520Z,3.97
2023-03-19T01:30:45.803Z,3.97
2023-03-19T01:32:41.710Z,3.95
2023-03-19T01:34:41.234Z,3.94
2023-03-19T01:36:18.365Z,3.93
2023-03-19T01:38:17.901Z,3.92
2023-03-19T01:40:04.820Z,3.90
2023-03-19T01:41:39.120Z,3.89
2023-03-19T01:43:26.941Z,3.88
2023-03-19T01:45:15.563Z,3.86
2023-03-19T01:47:14.772Z,3.87
2023-03-19T01:49:11.073Z,3.85
2023-03-19T01:50:56.697Z,3.85
2023-03-19T01:53:02.802Z,3.83
2023-03-19T01:55:39.790Z,3.82
2023-03-19T01:57:07.703Z,3.81
2023-03-19T01:58:48.554Z,3.80
2023-03-19T02:00:23.547Z,3.79
2023-03-19T02:02:02.134Z,3.78
2023-03-19T02:03:35.279Z,3.77
2023-03-19T02:05:26.551Z,3.76
2023-03-19T02:07:13.362Z,3.75
2023-03-19T02:09:01.872Z,3.73
2023-03-19T02:10:47.409Z,3.72
2023-03-19T02:12:32.053Z,3.70
2023-03-19T02:14:16.725Z,3.68
2023-03-19T02:16:02.664Z,3.67
2023-03-19T02:17:36.657Z,3.66
2023-03-19T02:19:05.932Z,3.64
2023-03-19T02:20:55.372Z,3.63
2023-03-19T02:24:40.980Z,3.59
2023-03-19T02:26:21.336Z,3.59
2023-03-19T02:28:09.330Z,3.58
2023-03-19T02:29:43.315Z,3.56
2023-03-19T02:31:28.505Z,3.56
2023-03-19T02:33:19.445Z,3.55
2023-03-19T02:34:52.800Z,3.54
2023-03-19T02:36:37.931Z,3.52
2023-03-19T02:38:22.569Z,3.51
2023-03-19T02:40:16.605Z,3.49
2023-03-19T02:42:02.203Z,3.48
2023-03-19T02:43:57.768Z,3.47
2023-03-19T02:45:23.904Z,3.46
2023-03-19T02:47:00.150Z,3.45
2023-03-19T02:48:49.805Z,3.44
2023-03-19T02:50:30.770Z,3.43
2023-03-19T02:52:04.288Z,3.41
2023-03-19T02:53:40.052Z,3.39
2023-03-19T02:55:24.989Z,3.37
2023-03-19T02:57:12.504Z,3.35
2023-03-19T02:59:06.005Z,3.32
2023-03-19T03:00:47.740Z,3.29
2023-03-19T03:02:16.407Z,3.27
2023-03-19T03:04:01.934Z,3.25
2023-03-19T03:05:33.878Z,3.22
2023-03-19T03:06:55.613Z,3.19
2023-03-19T03:08:28.810Z,3.17
2023-03-19T03:10:14.533Z,3.15
2023-03-19T03:11:55.030Z,3.13
2023-03-19T03:13:48.297Z,3.12
2023-03-19T03:15:21.759Z,3.11
2023-03-19T03:17:06.885Z,3.09
2023-03-19T03:18:51.259Z,3.07
2023-03-19T03:20:21.491Z,3.05
2023-03-19T03:21:57.547Z,3.04
2023-03-19T03:23:22.064Z,3.02
2023-03-19T03:25:11.246Z,3.00
2023-03-19T03:26:54.624Z,2.97
2023-03-19T03:28:49.890Z,2.96
2023-03-19T03:30:11.544Z,2.93
2023-03-19T03:31:51.273Z,2.92
2023-03-19T03:33:20.342Z,2.90
2023-03-19T03:35:01.079Z,2.88
2023-03-19T03:36:50.886Z,2.86
2023-03-19T03:38:40.134Z,2.83
2023-03-19T03:40:25.971Z,2.80
2023-03-19T03:41:52.251Z,2.78
2023-03-19T03:43:36.265Z,2.77
2023-03-19T03:45:16.183Z,3.23
2023-03-19T03:46:51.912Z,4.90
2023-03-19T03:48:25.347Z,6.24
2023-03-19T03:50:10.742Z,6.46
2023-03-19T03:51:52.820Z,6.05
2023-03-19T03:53:38.033Z,5.46
2023-03-19T03:55:14.139Z,5.04
2023-03-19T03:57:02.750Z,4.68
2023-03-19T03:58:39.469Z,4.39
2023-03-19T04:00:11.155Z,4.20
2023-03-19T04:01:38.335Z,4.02
2023-03-19T04:03:14.398Z,3.89
2023-03-19T04:04:48.903Z,3.74
2023-03-19T04:06:22.617Z,3.63
2023-03-19T04:08:13.520Z,3.53
2023-03-19T04:10:03.141Z,3.42
2023-03-19T04:11:51.272Z,3.31
2023-03-19T04:13:40.222Z,3.24
2023-03-19T04:15:15.944Z,3.16
2023-03-19T04:16:40.377Z,3.12
2023-03-19T04:18:15.774Z,3.07
2023-03-19T04:20:03.285Z,3.02
2023-03-19T04:21:36.506Z,2.98
2023-03-19T04:23:21.533Z,2.94
2023-03-19T04:24:55.240Z,2.90
2023-03-19T04:26:40.393Z,2.87
2023-03-19T04:28:14.027Z,2.85
2023-03-19T04:29:59.576Z,2.83
2023-03-19T04:31:35.672Z,2.82
2023-03-19T04:33:11.306Z,2.79
2023-03-19T04:34:53.390Z,2.78
2023-03-19T04:36:42.013Z,2.77
2023-03-19T04:38:26.769Z,2.74
2023-03-19T04:40:01.084Z,2.73
2023-03-19T04:41:47.144Z,2.71
2023-03-19T04:43:41.446Z,2.70
2023-03-19T04:45:16.605Z,2.69
2023-03-19T04:47:10.601Z,2.68
2023-03-19T04:49:13.812Z,2.68
2023-03-19T04:50:59.491Z,2.67
2023-03-19T04:52:45.079Z,2.68
2023-03-19T04:54:35.467Z,3.42
2023-03-19T04:56:16.095Z,5.10
2023-03-19T04:58:09.888Z,6.41
2023-03-19T04:59:55.442Z,6.32
2023-03-19T05:01:31.131Z,5.84
2023-03-19T05:03:14.184Z,5.32
2023-03-19T05:05:00.669Z,4.94
2023-03-19T05:06:36.913Z,4.66
2023-03-19T05:08:10.006Z,4.42
2023-03-19T05:10:03.702Z,4.25
2023-03-19T05:11:39.097Z,4.09
2023-03-19T05:13:07.928Z,3.97
2023-03-19T05:14:55.775Z,3.87
2023-03-19T05:16:45.807Z,3.77
2023-03-19T05:18:31.784Z,3.69
2023-03-19T05:20:17.083Z,3.62
2023-03-19T05:22:07.459Z,3.57
2023-03-19T05:24:01.005Z,3.51
2023-03-19T05:25:44.301Z,3.47
2023-03-19T05:27:18.242Z,3.43
2023-03-19T05:29:03.566Z,3.41
2023-03-19T05:30:55.577Z,3.39
2023-03-19T05:32:33.252Z,3.39
2023-03-19T05:34:19.488Z,3.39
2023-03-19T05:36:12.941Z,3.38
2023-03-19T05:38:01.434Z,3.38
2023-03-19T05:39:23.925Z,3.38
2023-03-19T05:40:57.830Z,3.38
2023-03-19T05:42:39.108Z,3.39
2023-03-19T05:44:20.979Z,3.39
2023-03-19T05:46:07.152Z,3.41
2023-03-19T05:47:51.593Z,3.42
2023-03-19T05:49:28.377Z,3.44
2023-03-19T05:51:02.262Z,3.46
2023-03-19T05:52:43.643Z,3.48
2023-03-19T05:54:24.435Z,3.50
2023-03-19T05:56:19.446Z,3.52
2023-03-19T05:58:13.483Z,3.55
2023-03-19T06:00:01.825Z,3.57
2023-03-19T06:01:41.009Z,3.60
2023-03-19T06:03:16.372Z,3.62
2023-03-19T06:04:57.448Z,3.63
2023-03-19T06:06:35.499Z,3.66
2023-03-19T06:08:16.187Z,3.67
2023-03-19T06:10:02.080Z,3.69
2023-03-19T06:11:56.199Z,3.70
2023-03-19T06:13:51.214Z,3.73
2023-03-19T06:15:28.782Z,3.77
2023-03-19T06:17:23.021Z,3.81
2023-03-19T06:19:07.910Z,3.86
2023-03-19T06:20:35.564Z,3.90
2023-03-19T06:22:11.338Z,3.96
2023-03-19T06:23:35.806Z,4.00
2023-03-19T06:25:11.845Z,4.06
2023-03-19T06:26:37.315Z,4.10
2023-03-19T06:28:26.308Z,4.16
2023-03-19T06:30:10.485Z,4.22
2023-03-19T06:31:44.286Z,4.28
2023-03-19T06:33:43.411Z,4.36
2023-03-19T06:35:18.151Z,4.43
2023-03-19T06:37:00.373Z,4.50
2023-03-19T06:38:29.574Z,4.57
2023-03-19T06:40:15.026Z,4.64
2023-03-19T06:42:09.901Z,4.72
2023-03-19T06:43:51.520Z,4.81
2023-03-19T06:45:25.929Z,4.90
2023-03-19T06:46:59.494Z,5.00
2023-03-19T06:48:26.361Z,5.08
2023-03-19T06:50:03.396Z,5.17
2023-03-19T06:51:51.517Z,5.29
2023-03-19T06:53:37.128Z,5.39
2023-03-19T06:55:17.776Z,5.50
2023-03-19T06:56:59.371Z,5.61
2023-03-19T06:58:35.818Z,5.73
2023-03-19T07:00:11.666Z,5.84
2023-03-19T07:01:53.436Z,5.94
2023-03-19T07:03:47.345Z,6.06
2023-03-19T07:05:31.914Z,6.17
2023-03-19T07:07:06.031Z,6.27
2023-03-19T07:08:51.298Z,6.36
2023-03-19T07:10:32.301Z,6.47
2023-03-19T07:12:08.782Z,6.58
2023-03-19T07:13:44.958Z,6.67
2023-03-19T07:15:30.497Z,6.77
2023-03-19T07:17:16.069Z,6.89
2023-03-19T07:18:51.967Z,6.99
2023-03-19T07:20:37.305Z,7.12
2023-03-19T07:22:19.857Z,7.22
2023-03-19T07:24:03.882Z,7.31
2023-03-19T07:25:49.608Z,7.43
2023-03-19T07:27:20.929Z,7.52
2023-03-19T07:28:57.655Z,7.59
2023-03-19T07:30:42.181Z,7.64
2023-03-19T07:32:23.790Z,7.71
2023-03-19T07:34:09.382Z,7.77
2023-03-19T07:35:46.011Z,7.82
2023-03-19T07:37:21.298Z,7.86
2023-03-19T07:39:07.636Z,7.92
2023-03-19T07:41:02.264Z,7.97
2023-03-19T07:42:38.459Z,8.04
2023-03-19T07:44:03.237Z,8.11
2023-03-19T07:45:36.960Z,8.20
2023-03-19T07:47:27.971Z,8.29
2023-03-19T07:49:09.729Z,8.43
2023-03-19T07:50:50.871Z,8.53
2023-03-19T07:52:26.669Z,8.62
2023-03-19T07:54:01.051Z,8.73
2023-03-19T07:55:42.518Z,8.82
2023-03-19T07:57:15.726Z,8.92
2023-03-19T07:58:48.177Z,9.03
2023-03-19T08:00:37.412Z,9.13
2023-03-19T08:02:13.300Z,9.23
2023-03-19T08:03:49.015Z,9.32
2023-03-19T08:05:34.216Z,9.42
2023-03-19T08:07:19.779Z,9.51
2023-03-19T08:09:14.846Z,9.60
2023-03-19T08:10:56.259Z,9.66
2023-03-19T08:12:41.780Z,9.72
2023-03-19T08:14:23.391Z,9.75
2023-03-19T08:16:08.113Z,9.81
2023-03-19T08:17:53.561Z,9.87
2023-03-19T08:19:41.176Z,9.95
2023-03-19T08:21:14.900Z,10.02
2023-03-19T08:23:00.400Z,10.09
2023-03-19T08:24:41.363Z,10.15
2023-03-19T08:26:05.583Z,10.19
2023-03-19T08:27:43.239Z,10.22
2023-03-19T08:29:18.935Z,10.25
2023-03-19T08:31:04.782Z,10.31
2023-03-19T08:32:50.486Z,10.36
2023-03-19T08:34:14.642Z,10.39
2023-03-19T08:35:50.631Z,10.40
2023-03-19T08:37:23.541Z,10.42
2023-03-19T08:39:11.945Z,10.46
2023-03-19T08:40:57.537Z,10.51
2023-03-19T08:42:45.032Z,10.56
2023-03-19T08:44:30.459Z,10.64
2023-03-19T08:46:15.736Z,10.74
2023-03-19T08:47:57.647Z,10.82
2023-03-19T08:49:32.921Z,10.93
2023-03-19T08:51:08.810Z,11.02
2023-03-19T08:52:55.231Z,11.10
2023-03-19T08:54:44.165Z,11.18
2023-03-19T08:56:17.276Z,11.26
2023-03-19T08:58:10.600Z,11.32
2023-03-19T08:59:35.095Z,11.40
2023-03-19T09:01:10.586Z,11.50
2023-03-19T09:02:52.082Z,11.57
2023-03-19T09:04:37.529Z,11.66
2023-03-19T09:06:22.500Z,11.72
2023-03-19T09:08:14.532Z,11.78
2023-03-19T09:09:51.806Z,11.83
2023-03-19T09:11:27.840Z,11.89
2023-03-19T09:13:07.988Z,11.93
2023-03-19T09:14:53.879Z,11.99
2023-03-19T09:16:47.287Z,12.05
2023-03-19T09:18:13.702Z,12.09
2023-03-19T09:19:45.372Z,12.13
2023-03-19T09:21:18.683Z,12.14
2023-03-19T09:23:13.912Z,12.15
2023-03-19T09:24:47.361Z,12.17
2023-03-19T09:26:20.798Z,12.20
2023-03-19T09:28:05.896Z,12.22
2023-03-19T09:29:51.438Z,12.25
2023-03-19T09:31:29.536Z,12.28
2023-03-19T09:33:11.242Z,12.34
2023-03-19T09:34:47.174Z,12.40
2023-03-19T09:36:11.231Z,12.47
2023-03-19T09:37:57.020Z,12.55
2023-03-19T09:39:51.450Z,12.64
2023-03-19T09:41:27.589Z,12.72
2023-03-19T09:43:16.996Z,12.77
2023-03-19T09:44:46.203Z,12.81
2023-03-19T09:46:22.946Z,12.83
2023-03-19T09:48:07.829Z,12.86
2023-03-19T09:49:53.118Z,12.90
2023-03-19T09:51:39.932Z,12.96
2023-03-19T09:53:15.867Z,13.00
2023-03-19T09:55:09.917Z,13.06
2023-03-19T09:56:45.612Z,13.14
2023-03-19T09:58:18.945Z,13.20
2023-03-19T10:00:08.132Z,13.29
2023-03-19T10:01:53.449Z,13.37
2023-03-19T10:03:38.607Z,13.47
2023-03-19T10:05:23.250Z,13.57
2023-03-19T10:07:08.733Z,13.66
2023-03-19T10:08:54.241Z,13.73
2023-03-19T10:10:47.600Z,13.79
2023-03-19T10:12:32.794Z,13.84
2023-03-19T10:14:18.055Z,13.85
2023-03-19T10:15:50.366Z,13.85
2023-03-19T10:17:35.806Z,13.87
2023-03-19T10:19:17.893Z,13.90
2023-03-19T10:21:05.866Z,13.94
2023-03-19T10:22:51.348Z,13.99
2023-03-19T10:24:24.237Z,14.04
2023-03-19T10:25:57.555Z,14.11
2023-03-19T10:27:18.994Z,14.15
2023-03-19T10:28:54.813Z,14.20
2023-03-19T10:30:39.321Z,14.26
2023-03-19T10:32:19.509Z,14.33
2023-03-19T10:34:04.990Z,14.40
2023-03-19T10:35:50.488Z,14.46
2023-03-19T10:37:35.225Z,14.50
2023-03-19T10:39:20.217Z,14.55
2023-03-19T10:41:13.784Z,14.60
2023-03-19T10:42:38.116Z,14.65
2023-03-19T10:44:12.947Z,14.67
2023-03-19T10:45:57.443Z,14.71
2023-03-19T10:47:30.713Z,14.79
2023-03-19T10:49:07.269Z,14.86
2023-03-19T10:50:53.613Z,14.94
2023-03-19T10:52:29.019Z,14.99
2023-03-19T10:54:02.201Z,15.03
2023-03-19T10:55:31.318Z,15.08
2023-03-19T10:57:16.611Z,15.15
2023-03-19T10:59:01.998Z,15.21
2023-03-19T11:00:49.921Z,15.27
2023-03-19T11:02:31.275Z,15.32
2023-03-19T11:03:55.784Z,15.35
2023-03-19T11:05:19.510Z,15.41
2023-03-19T11:06:57.276Z,15.46
2023-03-19T11:08:35.783Z,15.52
2023-03-19T11:10:13.025Z,15.59
2023-03-19T11:11:44.174Z,15.65
2023-03-19T11:13:08.161Z,15.74
2023-03-19T11:14:44.471Z,15.83
2023-03-19T11:16:05.998Z,15.92
2023-03-19T11:17:47.455Z,16.00
2023-03-19T11:19:09.370Z,16.08
2023-03-19T11:20:55.801Z,16.14
2023-03-19T11:22:24.683Z,16.21
2023-03-19T11:24:07.808Z,16.27
2023-03-19T11:25:50.781Z,16.36
2023-03-19T11:27:37.016Z,16.48
2023-03-19T11:29:21.347Z,16.61
2023-03-19T11:30:58.825Z,16.67
2023-03-19T11:32:34.813Z,16.69
2023-03-19T11:34:15.498Z,16.71
2023-03-19T11:35:37.781Z,16.74
2023-03-19T11:37:22.495Z,16.76
2023-03-19T11:39:07.656Z,16.76
2023-03-19T11:40:41.299Z,16.73
2023-03-19T11:42:22.359Z,16.69
2023-03-19T11:43:51.590Z,16.62
2023-03-19T11:45:39.134Z,16.58
2023-03-19T11:47:06.834Z,16.55
2023-03-19T11:48:39.597Z,16.58
2023-03-19T11:50:20.189Z,16.69
2023-03-19T11:51:59.883Z,16.89
2023-03-19T11:53:40.785Z,17.11
2023-03-19T11:55:14.233Z,17.32
2023-03-19T11:56:36.430Z,17.51
2023-03-19T11:58:11.956Z,17.68
2023-03-19T11:59:36.398Z,17.85
2023-03-19T12:01:10.446Z,18.02
2023-03-19T12:02:44.155Z,18.16
2023-03-19T12:04:17.600Z,18.26
2023-03-19T12:05:57.967Z,18.30
2023-03-19T12:07:42.588Z,18.37
2023-03-19T12:09:15.627Z,18.48
2023-03-19T12:10:49.121Z,18.58
2023-03-19T12:12:11.135Z,18.70
2023-03-19T12:13:37.795Z,18.82
2023-03-19T12:15:04.381Z,18.92
2023-03-19T12:16:46.547Z,19.02
2023-03-19T12:18:22.536Z,19.10
2023-03-19T12:19:49.006Z,19.18
2023-03-19T12:21:24.533Z,19.22
2023-03-19T12:23:09.799Z,19.27
2023-03-19T12:24:54.804Z,19.36
2023-03-19T12:26:30.334Z,19.47
2023-03-19T12:27:52.500Z,19.58
2023-03-19T12:29:26.604Z,19.68
2023-03-19T12:30:48.557Z,19.80
2023-03-19T12:32:22.045Z,19.89
2023-03-19T12:33:58.279Z,19.96
2023-03-19T12:35:43.722Z,20.02
2023-03-19T12:37:08.147Z,20.07
2023-03-19T12:38:48.807Z,20.10
2023-03-19T12:40:17.643Z,20.13
2023-03-19T12:42:03.045Z,20.11
2023-03-19T12:43:38.926Z,20.06
2023-03-19T12:45:14.590Z,20.00
2023-03-19T12:46:44.215Z,19.91
2023-03-19T12:48:29.073Z,19.76
2023-03-19T12:50:14.354Z,19.58
2023-03-19T12:51:43.703Z,19.41
2023-03-19T12:53:28.225Z,19.23
2023-03-19T12:55:14.721Z,19.08
2023-03-19T12:56:59.897Z,18.98
2023-03-19T12:58:35.654Z,18.90
2023-03-19T13:00:20.263Z,18.85
2023-03-19T13:01:54.144Z,18.82
2023-03-19T13:03:23.710Z,18.79
2023-03-19T13:04:57.517Z,18.79
2023-03-19T13:06:33.742Z,18.81
2023-03-19T13:08:07.230Z,18.84
2023-03-19T13:09:40.824Z,18.83
2023-03-19T13:11:16.341Z,18.81
2023-03-19T13:12:42.655Z,18.82
2023-03-19T13:14:27.719Z,18.83
2023-03-19T13:16:03.708Z,18.81
2023-03-19T13:17:57.303Z,18.82
2023-03-19T13:19:38.310Z,18.83
2023-03-19T13:21:11.667Z,18.79
2023-03-19T13:22:57.948Z,18.73
2023-03-19T13:24:43.270Z,18.64
2023-03-19T13:26:16.426Z,18.56
2023-03-19T13:28:05.703Z,18.50
2023-03-19T13:29:46.923Z,18.40
2023-03-19T13:31:40.313Z,18.32
2023-03-19T13:33:13.595Z,18.20
2023-03-19T13:34:59.071Z,18.11
2023-03-19T13:36:53.816Z,18.00
2023-03-19T13:38:27.251Z,17.89
2023-03-19T13:40:12.645Z,17.80
2023-03-19T13:41:41.845Z,17.71
2023-03-19T13:43:27.415Z,17.60
2023-03-19T13:45:13.606Z,17.48
2023-03-19T13:46:49.924Z,17.35
2023-03-19T13:48:26.428Z,17.26
2023-03-19T13:50:19.934Z,17.17
2023-03-19T13:52:13.333Z,17.11
2023-03-19T13:53:56.844Z,17.05
2023-03-19T13:55:42.262Z,16.99
2023-03-19T13:57:18.659Z,16.92
2023-03-19T13:59:01.555Z,16.87
2023-03-19T14:00:35.681Z,16.79
2023-03-19T14:02:05.188Z,16.75
2023-03-19T14:03:26.878Z,16.71
2023-03-19T14:05:03.625Z,16.67
2023-03-19T14:06:39.818Z,16.62
2023-03-19T14:08:03.774Z,16.58
2023-03-19T14:09:39.937Z,16.55
2023-03-19T14:11:24.542Z,16.53
2023-03-19T14:13:09.327Z,16.58
2023-03-19T14:14:33.884Z,16.67
2023-03-19T14:16:14.682Z,16.82
2023-03-19T14:17:50.312Z,17.02
2023-03-19T14:19:44.822Z,17.27
2023-03-19T14:21:21.820Z,17.58
2023-03-19T14:23:05.790Z,17.86
2023-03-19T14:26:21.076Z,18.43
2023-03-19T14:27:54.612Z,18.59
2023-03-19T14:29:18.659Z,18.70
2023-03-19T14:31:12.852Z,18.79
2023-03-19T14:32:57.865Z,18.85
2023-03-19T14:34:28.878Z,18.84
2023-03-19T14:36:14.129Z,18.79
2023-03-19T14:37:55.886Z,18.72
2023-03-19T14:39:29.118Z,18.62
2023-03-19T14:41:05.633Z,18.51
2023-03-19T14:42:43.354Z,18.41
2023-03-19T14:44:16.742Z,18.32
2023-03-19T14:46:06.849Z,18.26
2023-03-19T14:47:42.085Z,18.20
2023-03-19T14:49:12.865Z,18.13
2023-03-19T14:52:39.712Z,17.93
2023-03-19T14:54:24.402Z,17.85
2023-03-19T14:55:56.133Z,17.74
2023-03-19T14:57:17.816Z,17.67
2023-03-19T14:59:03.704Z,17.57
2023-03-19T15:00:33.027Z,17.50
2023-03-19T15:02:04.240Z,17.45
2023-03-19T15:03:38.170Z,17.41
2023-03-19T15:05:13.602Z,17.35
2023-03-19T15:06:54.477Z,17.29
2023-03-19T15:08:34.889Z,17.24
2023-03-19T15:10:08.540Z,17.17
2023-03-19T15:11:50.390Z,17.08
2023-03-19T15:13:23.537Z,16.95
2023-03-19T15:14:45.830Z,16.84
2023-03-19T15:16:19.016Z,16.74
2023-03-19T15:18:03.126Z,16.64
2023-03-19T15:19:37.824Z,16.52
2023-03-19T15:21:22.531Z,16.44
2023-03-19T15:22:52.280Z,16.38
2023-03-19T15:24:26.964Z,16.32
2023-03-19T15:26:03.001Z,16.28
2023-03-19T15:27:39.450Z,16.25
2023-03-19T15:29:20.274Z,16.21
2023-03-19T15:31:12.447Z,16.18
2023-03-19T15:33:07.947Z,16.12
2023-03-19T15:34:32.649Z,16.07
2023-03-19T15:36:19.247Z,16.01
2023-03-19T15:37:49.020Z,15.94
2023-03-19T15:39:20.685Z,15.87
2023-03-19T15:40:54.945Z,15.80
2023-03-19T15:42:31.554Z,15.73
2023-03-19T15:44:16.884Z,15.66
2023-03-19T15:45:51.806Z,15.61
2023-03-19T15:47:21.055Z,15.55
2023-03-19T15:49:06.501Z,15.49
2023-03-19T15:50:33.778Z,15.44
2023-03-19T15:52:10.151Z,15.38
2023-03-19T15:53:55.488Z,15.31
2023-03-19T15:55:46.107Z,15.25
2023-03-19T15:57:22.027Z,15.16
2023-03-19T15:59:07.238Z,15.09
2023-03-19T16:00:53.104Z,15.01
2023-03-19T16:02:38.193Z,14.93
2023-03-19T16:04:11.700Z,14.83
2023-03-19T16:05:36.105Z,14.76
2023-03-19T16:07:11.564Z,14.68
2023-03-19T16:08:56.596Z,14.58
2023-03-19T16:10:42.098Z,14.48
2023-03-19T16:12:27.249Z,14.38
2023-03-19T16:13:51.044Z,14.30
2023-03-19T16:15:31.863Z,14.21
2023-03-19T16:17:07.687Z,14.12
2023-03-19T16:19:02.887Z,14.02
2023-03-19T16:20:49.551Z,13.91
2023-03-19T16:22:23.224Z,13.82
2023-03-19T16:23:56.758Z,13.74
2023-03-19T16:25:42.311Z,13.63
2023-03-19T16:27:04.318Z,13.54
2023-03-19T16:28:28.527Z,13.46
2023-03-19T16:30:05.184Z,13.38
2023-03-19T16:31:54.894Z,13.29
2023-03-19T16:33:28.906Z,13.19
2023-03-19T16:35:15.149Z,13.11
2023-03-19T16:36:44.560Z,13.02
2023-03-19T16:38:15.752Z,12.94
2023-03-19T16:39:49.340Z,12.87
2023-03-19T16:41:34.113Z,12.79
2023-03-19T16:43:19.206Z,12.70
2023-03-19T16:45:01.199Z,12.62
2023-03-19T16:46:34.760Z,12.53
2023-03-19T16:48:03.816Z,12.47
2023-03-19T16:49:44.619Z,12.40
2023-03-19T16:51:08.596Z,12.34
2023-03-19T16:52:42.250Z,12.27
2023-03-19T16:54:20.729Z,12.20
2023-03-19T16:55:52.136Z,12.13
2023-03-19T16:57:27.692Z,12.06
2023-03-19T16:59:04.479Z,11.99
2023-03-19T17:00:41.019Z,11.92
2023-03-19T17:02:04.926Z,11.86
2023-03-19T17:03:38.512Z,11.79
2023-03-19T17:05:12.392Z,11.72
2023-03-19T17:06:55.881Z,11.67
2023-03-19T17:08:50.903Z,11.60
2023-03-19T17:10:24.289Z,11.54
2023-03-19T17:11:46.848Z,11.49
2023-03-19T17:13:20.908Z,11.44
2023-03-19T17:15:15.866Z,11.39
2023-03-19T17:17:02.859Z,11.34
2023-03-19T17:18:44.710Z,11.29
2023-03-19T17:20:18.038Z,11.24
2023-03-19T17:22:12.864Z,11.19
2023-03-19T17:23:53.742Z,11.12
2023-03-19T17:25:30.146Z,11.07
2023-03-19T17:27:15.284Z,11.01
2023-03-19T17:28:48.864Z,10.95
2023-03-19T17:30:13.048Z,10.90
2023-03-19T17:31:35.189Z,10.85
2023-03-19T17:33:08.596Z,10.80
2023-03-19T17:34:54.037Z,10.75
2023-03-19T17:36:25.797Z,10.68
2023-03-19T17:37:59.206Z,10.61
2023-03-19T17:39:21.345Z,10.56
2023-03-19T17:40:55.335Z,10.50
2023-03-19T17:42:37.876Z,10.44
2023-03-19T17:44:03.186Z,10.39
2023-03-19T17:45:49.238Z,10.34
2023-03-19T17:47:22.304Z,10.29
2023-03-19T17:48:55.450Z,10.24
2023-03-19T17:50:28.664Z,10.20
2023-03-19T17:52:14.241Z,10.14
2023-03-19T17:53:50.960Z,10.09
2023-03-19T17:55:24.577Z,10.05
2023-03-19T17:56:58.386Z,10.01
2023-03-19T17:58:31.978Z,9.96
2023-03-19T18:00:06.460Z,9.93
2023-03-19T18:01:53.180Z,9.89
2023-03-19T18:03:28.410Z,9.85
2023-03-19T18:04:52.451Z,9.82
2023-03-19T18:06:33.839Z,9.79
2023-03-19T18:08:03.301Z,9.76
2023-03-19T18:09:25.823Z,9.73
2023-03-19T18:10:59.387Z,9.70
2023-03-19T18:12:30.501Z,9.68
2023-03-19T18:14:17.087Z,9.65
2023-03-19T18:15:41.220Z,9.63
2023-03-19T18:17:05.090Z,9.62
2023-03-19T18:18:38.921Z,9.60
2023-03-19T18:20:13.565Z,9.58
2023-03-19T18:21:38.198Z,9.56
2023-03-19T18:23:00.376Z,9.54
2023-03-19T18:24:21.686Z,9.53
2023-03-19T18:25:43.987Z,9.51
2023-03-19T18:27:08.137Z,9.50
2023-03-19T18:28:30.191Z,9.49
2023-03-19T18:30:04.704Z,9.48
2023-03-19T18:31:58.116Z,9.47
2023-03-19T18:33:31.654Z,9.46
2023-03-19T18:35:05.304Z,9.45
2023-03-19T18:36:29.712Z,9.45
2023-03-19T18:38:14.891Z,9.43
2023-03-19T18:39:48.607Z,9.41
2023-03-19T18:41:21.440Z,9.40
2023-03-19T18:43:01.192Z,9.38
2023-03-19T18:44:33.995Z,9.36
2023-03-19T18:46:16.438Z,9.34
2023-03-19T18:48:03.486Z,9.32
2023-03-19T18:49:45.948Z,9.30
2023-03-19T18:51:22.017Z,9.29
2023-03-19T18:52:58.381Z,9.28
2023-03-19T18:54:33.710Z,9.27
2023-03-19T18:56:08.732Z,9.26
2023-03-19T18:57:30.710Z,9.25
2023-03-19T18:58:55.344Z,9.23
2023-03-19T19:00:28.791Z,9.22
2023-03-19T19:02:10.629Z,9.20
2023-03-19T19:03:55.811Z,9.17
2023-03-19T19:05:17.244Z,9.15
2023-03-19T19:06:47.851Z,9.13
2023-03-19T19:08:33.161Z,9.10
2023-03-19T19:10:05.264Z,9.07
2023-03-19T19:11:38.972Z,9.05
2023-03-19T19:13:08.184Z,9.02
2023-03-19T19:14:39.556Z,8.99
2023-03-19T19:16:06.488Z,8.96
2023-03-19T19:17:29.627Z,8.93
2023-03-19T19:18:56.386Z,8.89
2023-03-19T19:20:30.158Z,8.86
2023-03-19T19:22:06.206Z,8.82
2023-03-19T19:24:00.901Z,8.79
2023-03-19T19:25:22.705Z,8.75
2023-03-19T19:26:58.400Z,8.71
2023-03-19T19:28:27.997Z,8.67
2023-03-19T19:29:54.382Z,8.64
2023-03-19T19:31:27.823Z,8.59
2023-03-19T19:32:56.766Z,8.57
2023-03-19T19:34:30.371Z,8.53
2023-03-19T19:36:11.272Z,8.48
2023-03-19T19:37:56.347Z,8.44
2023-03-19T19:39:50.900Z,8.39
2023-03-19T19:41:24.123Z,8.35
2023-03-19T19:43:04.711Z,8.30
2023-03-19T19:44:28.829Z,8.26
2023-03-19T19:46:04.785Z,8.22
2023-03-19T19:47:58.118Z,8.17
2023-03-19T19:49:31.163Z,8.14
2023-03-19T19:51:04.457Z,8.10
2023-03-19T19:52:38.338Z,8.07
2023-03-19T19:54:13.678Z,8.04
2023-03-19T19:55:56.897Z,8.02
2023-03-19T19:57:21.306Z,7.98
2023-03-19T19:58:54.862Z,7.96
2023-03-19T20:00:36.030Z,7.93
2023-03-19T20:02:17.431Z,7.90
2023-03-19T20:03:42.311Z,7.89
2023-03-19T20:05:27.557Z,7.87
2023-03-19T20:08:51.250Z,7.82
2023-03-19T20:10:27.368Z,7.81
2023-03-19T20:12:20.656Z,7.80
2023-03-19T20:13:56.774Z,7.78
2023-03-19T20:15:38.135Z,7.79
2023-03-19T20:17:16.841Z,7.79
2023-03-19T20:18:54.963Z,7.79
2023-03-19T20:20:48.127Z,7.79
2023-03-19T20:22:33.341Z,7.79
2023-03-19T20:24:15.009Z,7.85
2023-03-19T20:25:39.467Z,8.71
2023-03-19T20:27:08.535Z,9.99
2023-03-19T20:28:35.670Z,10.98
2023-03-19T20:30:03.714Z,11.03
2023-03-19T20:31:44.742Z,10.69
2023-03-19T20:33:09.227Z,10.31
2023-03-19T20:34:44.929Z,9.99
2023-03-19T20:36:20.454Z,9.78
2023-03-19T20:37:42.302Z,9.59
2023-03-19T20:39:06.866Z,9.46
2023-03-19T20:40:40.725Z,9.34
2023-03-19T20:42:13.885Z,9.24
2023-03-19T20:43:49.445Z,9.16
2023-03-19T20:45:22.890Z,9.09
2023-03-19T20:47:00.123Z,9.03
2023-03-19T20:48:23.859Z,8.96
2023-03-19T20:50:06.879Z,8.92
2023-03-19T20:51:33.635Z,8.88
2023-03-19T20:53:06.433Z,8.85
2023-03-19T20:54:30.854Z,8.83
2023-03-19T20:55:54.798Z,8.80
2023-03-19T20:57:18.859Z,8.78
2023-03-19T20:58:43.389Z,8.75
2023-03-19T21:00:16.857Z,8.72
2023-03-19T21:01:52.821Z,8.70
2023-03-19T21:03:19.213Z,8.69
2023-03-19T21:04:56.835Z,8.67
2023-03-19T21:06:20.815Z,8.66
2023-03-19T21:07:45.280Z,8.64
2023-03-19T21:09:09.118Z,8.62
2023-03-19T21:10:43.047Z,8.61
2023-03-19T21:12:23.893Z,8.60
2023-03-19T21:14:04.626Z,8.59
2023-03-19T21:15:50.175Z,8.59
2023-03-19T21:17:23.468Z,8.58
2023-03-19T21:18:56.666Z,8.57
2023-03-19T21:20:20.487Z,8.56
2023-03-19T21:22:05.899Z,8.55
2023-03-19T21:23:39.255Z,8.53
2023-03-19T21:25:03.184Z,8.53
2023-03-19T21:26:24.809Z,8.53
2023-03-19T21:28:00.705Z,8.53
2023-03-19T21:29:34.412Z,8.52
2023-03-19T21:31:19.603Z,8.51
2023-03-19T21:32:48.713Z,8.52
2023-03-19T21:34:29.717Z,8.52
2023-03-19T21:36:03.218Z,8.51
2023-03-19T21:37:50.683Z,8.51
2023-03-19T21:39:22.148Z,8.51